Time;durP1;ratioP1;P1;durP2;ratioP2;P2;SDS_P1;SDS_P2;PMS_P1;PMS_P2;Temp;Humidity;BMP_temperature;BMP_pressure;BME280_temperature;BME280_humidity;BME280_pressure;Samples;Min_cycle;Max_cycle;Signal;HPM_P1;HPM_P2
2022/12/20 00:00:46;;;;;;;2.53;0.80;;;;;;;;;;5071957;28;20024;-61
2022/12/20 00:03:13;;;;;;;2.63;1.30;;;;;;;;;;5084838;28;20028;-61
2022/12/20 00:05:40;;;;;;;3.23;1.43;;;;;;;;;;5085887;28;20391;-61
2022/12/20 00:08:07;;;;;;;4.53;1.80;;;;;;;;;;5086569;28;20043;-61
2022/12/20 00:10:38;;;;;;;24.27;3.37;;;;;;;;;;5086684;28;20467;-61
2022/12/20 00:13:05;;;;;;;6.03;3.47;;;;;;;;;;5087853;28;20073;-61
2022/12/20 00:15:32;;;;;;;2.83;1.63;;;;;;;;;;5092072;28;20032;-61
2022/12/20 00:17:58;;;;;;;3.80;2.20;;;;;;;;;;5092068;28;20547;-61
2022/12/20 00:20:26;;;;;;;2.40;1.50;;;;;;;;;;5091525;28;20378;-61
2022/12/20 00:22:52;;;;;;;2.13;1.00;;;;;;;;;;5091700;28;20031;-61
2022/12/20 00:25:19;;;;;;;8.27;1.53;;;;;;;;;;5090636;28;20032;-61
2022/12/20 00:27:47;;;;;;;1.37;0.80;;;;;;;;;;5086598;28;20478;-61
2022/12/20 00:30:14;;;;;;;1.47;1.00;;;;;;;;;;5086856;28;20034;-61
2022/12/20 00:32:41;;;;;;;2.33;1.70;;;;;;;;;;5089237;28;20027;-61
2022/12/20 00:35:08;;;;;;;4.90;1.70;;;;;;;;;;5090709;28;20024;-60
2022/12/20 00:37:34;;;;;;;3.80;1.67;;;;;;;;;;5085890;28;20074;-60
2022/12/20 00:40:02;;;;;;;5.07;1.47;;;;;;;;;;5089057;28;20020;-66
2022/12/20 00:42:28;;;;;;;2.40;1.60;;;;;;;;;;5095670;28;20542;-65
2022/12/20 00:44:55;;;;;;;1.73;0.60;;;;;;;;;;5090553;28;20040;-66
2022/12/20 00:47:22;;;;;;;1.57;1.00;;;;;;;;;;5071329;28;20043;-65
2022/12/20 00:49:48;;;;;;;4.43;1.63;;;;;;;;;;5090262;28;20067;-65
2022/12/20 00:52:15;;;;;;;2.47;1.83;;;;;;;;;;5090322;28;20531;-66
2022/12/20 00:54:42;;;;;;;2.90;1.33;;;;;;;;;;5090062;28;20498;-69
2022/12/20 00:57:08;;;;;;;3.63;1.47;;;;;;;;;;5069495;28;20034;-66
2022/12/20 00:59:35;;;;;;;2.23;1.37;;;;;;;;;;5075124;28;20031;-65
2022/12/20 01:02:02;;;;;;;3.83;1.93;;;;;;;;;;5074945;28;20024;-65
2022/12/20 01:04:28;;;;;;;3.20;2.10;;;;;;;;;;5090350;28;20028;-65
2022/12/20 01:06:55;;;;;;;3.53;2.13;;;;;;;;;;5095207;28;20051;-66
2022/12/20 01:09:22;;;;;;;2.63;1.70;;;;;;;;;;5094966;28;20474;-66
2022/12/20 01:11:48;;;;;;;3.47;1.60;;;;;;;;;;5089747;28;20035;-65
2022/12/20 01:14:16;;;;;;;6.33;1.60;;;;;;;;;;5089639;28;20034;-66
2022/12/20 01:16:46;;;;;;;1.27;0.83;;;;;;;;;;5089951;28;20065;-65
2022/12/20 01:19:15;;;;;;;1.07;0.93;;;;;;;;;;5089897;28;20100;-65
2022/12/20 01:21:45;;;;;;;4.97;1.50;;;;;;;;;;5094539;28;20024;-65
2022/12/20 01:24:16;;;;;;;26.97;2.67;;;;;;;;;;5095084;28;20032;-65
2022/12/20 01:26:43;;;;;;;2.50;1.43;;;;;;;;;;5094242;28;20039;-68
2022/12/20 01:29:10;;;;;;;2.60;1.67;;;;;;;;;;5094637;28;20485;-65
2022/12/20 01:31:37;;;;;;;3.33;1.87;;;;;;;;;;5094672;28;20028;-65
2022/12/20 01:34:04;;;;;;;2.13;1.23;;;;;;;;;;5089449;28;20405;-66
2022/12/20 01:36:33;;;;;;;5.10;1.87;;;;;;;;;;5089409;28;20028;-65
2022/12/20 01:39:01;;;;;;;4.40;2.40;;;;;;;;;;5089477;28;20027;-66
2022/12/20 01:41:29;;;;;;;3.70;2.63;;;;;;;;;;5089277;28;20395;-66
2022/12/20 01:44:00;;;;;;;2.03;1.30;;;;;;;;;;5093271;28;20016;-66
2022/12/20 01:46:30;;;;;;;1.53;1.37;;;;;;;;;;5094077;28;20393;-65
2022/12/20 01:49:04;;;;;;;12.40;1.80;;;;;;;;;;5087800;28;20374;-66
2022/12/20 02:06:23;;;;;;;9.37;2.10;;;;;;;;;;5157101;27;20367;-63
2022/12/20 02:08:50;;;;;;;8.70;1.63;;;;;;;;;;5049677;27;2133720;-63
2022/12/20 02:11:35;;;;;;;5.30;2.27;;;;;;;;;;5125224;28;20274;-63
2022/12/20 02:14:09;;;;;;;1.80;1.00;;;;;;;;;;5111415;28;20063;-63
2022/12/20 02:16:41;;;;;;;2.87;1.77;;;;;;;;;;5105564;28;20024;-64
2022/12/20 02:19:14;;;;;;;3.53;1.47;;;;;;;;;;5126213;28;20076;-63
2022/12/20 02:21:46;;;;;;;10.90;1.90;;;;;;;;;;5129871;28;20042;-64
2022/12/20 02:24:25;;;;;;;2.60;1.60;;;;;;;;;;5109539;28;20580;-64
2022/12/20 02:27:11;;;;;;;2.60;1.83;;;;;;;;;;5109616;28;20420;-64
2022/12/20 02:29:40;;;;;;;2.88;1.75;;;;;;;;;;5105406;28;20024;-63
2022/12/20 02:32:09;;;;;;;4.73;1.90;;;;;;;;;;5084143;28;20035;-64
2022/12/20 02:34:37;;;;;;;9.83;2.90;;;;;;;;;;5101219;28;20381;-63
2022/12/20 02:37:04;;;;;;;3.70;2.43;;;;;;;;;;5109055;28;20072;-64
2022/12/20 02:39:31;;;;;;;2.53;1.63;;;;;;;;;;5126984;28;20557;-62
2022/12/20 02:42:01;;;;;;;2.47;1.53;;;;;;;;;;5129780;28;20484;-63
2022/12/20 02:47:19;;;;;;;2.87;1.87;;;;;;;;;;5123746;28;20162;-62
2022/12/20 02:49:47;;;;;;;3.83;1.67;;;;;;;;;;5109194;28;20028;-63
2022/12/20 02:52:14;;;;;;;4.87;1.73;;;;;;;;;;5111898;28;20093;-63
2022/12/20 02:54:40;;;;;;;2.27;1.50;;;;;;;;;;5123192;28;20035;-62
2022/12/20 02:57:13;;;;;;;2.63;1.90;;;;;;;;;;5123894;28;20027;-63
2022/12/20 02:59:53;;;;;;;5.93;2.83;;;;;;;;;;5124312;28;20119;-62
2022/12/20 03:02:20;;;;;;;3.37;1.23;;;;;;;;;;5120732;28;20709;-62
2022/12/20 03:04:48;;;;;;;1.63;1.20;;;;;;;;;;5099183;28;20097;-63
2022/12/20 03:07:15;;;;;;;4.00;2.13;;;;;;;;;;5075418;28;20028;-62
2022/12/20 03:09:43;;;;;;;2.77;1.93;;;;;;;;;;5074992;28;20028;-62
2022/12/20 03:12:10;;;;;;;3.60;1.73;;;;;;;;;;5076539;28;20439;-62
2022/12/20 03:14:38;;;;;;;3.53;2.03;;;;;;;;;;5070903;28;20453;-62
2022/12/20 03:17:05;;;;;;;3.63;2.23;;;;;;;;;;5069627;28;20082;-62
2022/12/20 03:19:32;;;;;;;6.23;2.00;;;;;;;;;;5069516;28;20029;-62
2022/12/20 03:21:59;;;;;;;4.43;2.00;;;;;;;;;;5071451;28;20020;-62
2022/12/20 03:24:26;;;;;;;3.37;1.50;;;;;;;;;;5092258;28;20020;-62
2022/12/20 03:26:52;;;;;;;2.53;1.30;;;;;;;;;;5095254;28;20043;-63
2022/12/20 03:29:19;;;;;;;2.70;1.60;;;;;;;;;;5095048;28;20135;-63
2022/12/20 03:31:46;;;;;;;3.07;1.37;;;;;;;;;;5094480;28;20094;-63
2022/12/20 03:34:12;;;;;;;3.30;1.07;;;;;;;;;;5112741;28;20032;-63
2022/12/20 03:36:39;;;;;;;3.47;1.87;;;;;;;;;;5111710;28;20020;-63
2022/12/20 03:39:06;;;;;;;2.77;1.50;;;;;;;;;;5110003;28;20023;-62
2022/12/20 03:41:32;;;;;;;4.90;2.80;;;;;;;;;;5109628;28;20470;-63
2022/12/20 03:43:59;;;;;;;5.03;3.07;;;;;;;;;;5090908;28;20471;-62
2022/12/20 03:46:26;;;;;;;5.23;2.20;;;;;;;;;;5091588;28;20035;-62
2022/12/20 03:48:53;;;;;;;2.53;1.50;;;;;;;;;;5094467;28;20535;-63
2022/12/20 03:51:20;;;;;;;2.63;1.60;;;;;;;;;;5094500;28;20020;-62
2022/12/20 03:53:47;;;;;;;5.87;2.10;;;;;;;;;;5110195;28;20106;-62
2022/12/20 03:56:13;;;;;;;2.50;1.40;;;;;;;;;;5111774;28;20020;-62
2022/12/20 03:58:40;;;;;;;2.13;1.57;;;;;;;;;;5101676;28;20036;-62
2022/12/20 04:01:17;;;;;;;3.80;2.27;;;;;;;;;;5089192;28;20493;-62
2022/12/20 04:03:44;;;;;;;4.53;2.43;;;;;;;;;;5103853;28;20042;-62
2022/12/20 04:06:10;;;;;;;6.63;2.53;;;;;;;;;;5088929;28;20031;-62
2022/12/20 04:08:37;;;;;;;4.60;1.40;;;;;;;;;;5090629;28;20073;-63
2022/12/20 04:11:16;;;;;;;3.80;1.50;;;;;;;;;;5094175;28;20061;-62
2022/12/20 04:13:43;;;;;;;4.73;2.07;;;;;;;;;;5109077;28;20099;-62
2022/12/20 04:16:10;;;;;;;16.57;2.53;;;;;;;;;;5114489;28;20032;-62
2022/12/20 04:18:37;;;;;;;1.43;1.13;;;;;;;;;;5113088;28;20024;-62
2022/12/20 04:21:06;;;;;;;5.37;2.63;;;;;;;;;;5111859;28;20027;-62
2022/12/20 04:23:36;;;;;;;37.13;2.13;;;;;;;;;;5095120;28;20052;-62
2022/12/20 04:26:03;;;;;;;3.00;1.77;;;;;;;;;;5088518;28;20058;-62
2022/12/20 04:28:30;;;;;;;4.10;1.90;;;;;;;;;;5088494;28;20024;-62
2022/12/20 04:30:57;;;;;;;2.60;1.57;;;;;;;;;;5090413;28;20104;-62
2022/12/20 04:33:25;;;;;;;3.43;2.33;;;;;;;;;;5105767;28;20038;-62
2022/12/20 04:35:51;;;;;;;2.73;1.57;;;;;;;;;;5113500;28;20100;-63
2022/12/20 04:38:19;;;;;;;1.20;0.93;;;;;;;;;;5113950;28;20031;-62
2022/12/20 04:40:45;;;;;;;1.93;1.30;;;;;;;;;;5113851;28;20027;-62
2022/12/20 04:43:12;;;;;;;6.80;2.67;;;;;;;;;;5100524;28;20024;-60
2022/12/20 04:45:39;;;;;;;2.43;1.57;;;;;;;;;;5088135;28;20154;-61
2022/12/20 04:48:05;;;;;;;2.90;2.17;;;;;;;;;;5088330;28;20028;-60
2022/12/20 04:50:32;;;;;;;2.47;1.70;;;;;;;;;;5087301;28;20035;-60
2022/12/20 04:55:44;;;;;;;1.08;0.98;;;;;;;;;;5113565;28;20046;-61
2022/12/20 04:58:11;;;;;;;4.37;2.17;;;;;;;;;;5113214;28;20104;-61
2022/12/20 05:00:37;;;;;;;2.33;1.30;;;;;;;;;;5108592;28;20067;-60
2022/12/20 05:03:04;;;;;;;1.73;1.47;;;;;;;;;;5093059;28;20020;-61
2022/12/20 05:05:31;;;;;;;5.37;3.23;;;;;;;;;;5075128;28;20063;-61
2022/12/20 05:07:58;;;;;;;2.60;1.40;;;;;;;;;;5067412;28;20107;-60
2022/12/20 05:10:25;;;;;;;2.77;1.43;;;;;;;;;;5072661;28;20089;-61
2022/12/20 05:12:52;;;;;;;1.67;1.00;;;;;;;;;;5100366;28;20043;-59
2022/12/20 05:15:19;;;;;;;9.23;0.93;;;;;;;;;;5088630;28;20372;-60
2022/12/20 05:17:45;;;;;;;4.27;1.40;;;;;;;;;;5092818;28;20020;-59
2022/12/20 05:20:12;;;;;;;1.43;1.00;;;;;;;;;;5092739;28;20024;-60
2022/12/20 05:28:09;;;;;;;4.15;2.42;;;;;;;;;;5110466;28;20043;-60
2022/12/20 05:30:36;;;;;;;12.87;2.07;;;;;;;;;;5103894;28;20031;-60
2022/12/20 05:33:02;;;;;;;7.97;2.33;;;;;;;;;;5087335;28;20033;-60
2022/12/20 05:35:29;;;;;;;3.97;2.27;;;;;;;;;;5087212;28;20459;-60
2022/12/20 05:37:56;;;;;;;4.33;2.43;;;;;;;;;;5088871;28;20020;-60
2022/12/20 05:40:23;;;;;;;3.20;1.67;;;;;;;;;;5093380;28;20356;-60
2022/12/20 05:42:49;;;;;;;1.87;1.40;;;;;;;;;;5112869;28;20034;-60
2022/12/20 05:45:16;;;;;;;3.43;1.77;;;;;;;;;;5112850;28;20031;-60
2022/12/20 05:47:43;;;;;;;1.73;1.20;;;;;;;;;;5112666;28;20081;-60
2022/12/20 05:50:09;;;;;;;2.77;1.87;;;;;;;;;;5110845;28;20491;-60
2022/12/20 05:52:36;;;;;;;1.50;1.10;;;;;;;;;;5087414;28;20419;-59
2022/12/20 05:55:03;;;;;;;5.37;1.77;;;;;;;;;;5086833;28;20059;-60
2022/12/20 05:57:30;;;;;;;3.10;2.03;;;;;;;;;;5086824;28;20021;-60
2022/12/20 05:59:57;;;;;;;3.07;2.00;;;;;;;;;;5088020;28;20020;-60
2022/12/20 06:02:23;;;;;;;3.97;2.13;;;;;;;;;;5110073;28;20381;-60
2022/12/20 06:04:50;;;;;;;1.80;1.40;;;;;;;;;;5112578;28;20051;-59
2022/12/20 06:07:18;;;;;;;4.37;1.67;;;;;;;;;;5112450;28;20032;-60
2022/12/20 06:09:45;;;;;;;2.33;1.77;;;;;;;;;;5112626;28;20024;-60
2022/12/20 06:12:12;;;;;;;4.83;1.90;;;;;;;;;;5110418;28;20062;-59
2022/12/20 06:14:39;;;;;;;3.10;1.80;;;;;;;;;;5066491;28;20364;-59
2022/12/20 06:17:06;;;;;;;2.77;1.80;;;;;;;;;;5066609;28;20025;-60
2022/12/20 06:19:33;;;;;;;1.90;1.37;;;;;;;;;;5066630;28;20047;-61
2022/12/20 06:22:00;;;;;;;1.33;1.13;;;;;;;;;;5067196;28;20475;-60
2022/12/20 06:24:27;;;;;;;7.33;2.57;;;;;;;;;;5074936;28;20020;-60
2022/12/20 06:26:54;;;;;;;5.27;2.23;;;;;;;;;;5112521;28;20028;-60
2022/12/20 06:29:23;;;;;;;1.37;1.23;;;;;;;;;;5111825;28;20048;-59
2022/12/20 06:31:50;;;;;;;2.50;1.83;;;;;;;;;;5112145;28;20428;-60
2022/12/20 06:34:17;;;;;;;3.23;1.43;;;;;;;;;;5111344;28;20106;-59
2022/12/20 06:36:44;;;;;;;4.37;1.73;;;;;;;;;;5104283;28;20035;-60
2022/12/20 06:39:11;;;;;;;4.60;2.27;;;;;;;;;;5086821;28;20024;-59
2022/12/20 06:41:37;;;;;;;3.10;1.87;;;;;;;;;;5088450;28;20060;-60
2022/12/20 06:44:04;;;;;;;10.47;2.57;;;;;;;;;;5090585;28;20027;-59
2022/12/20 06:46:31;;;;;;;3.53;2.10;;;;;;;;;;5095373;28;20095;-60
2022/12/20 06:48:58;;;;;;;3.13;2.07;;;;;;;;;;5098710;28;20568;-60
2022/12/20 06:51:24;;;;;;;2.03;1.57;;;;;;;;;;5116006;28;20034;-60
2022/12/20 06:53:51;;;;;;;3.23;2.37;;;;;;;;;;5115863;28;20020;-60
2022/12/20 06:56:18;;;;;;;3.53;2.43;;;;;;;;;;5115591;28;20032;-60
2022/12/20 06:58:46;;;;;;;2.33;1.77;;;;;;;;;;5110492;28;20381;-60
2022/12/20 07:01:12;;;;;;;3.20;2.10;;;;;;;;;;5105822;28;20037;-60
2022/12/20 07:03:39;;;;;;;2.57;1.83;;;;;;;;;;5089851;28;20020;-60
2022/12/20 07:06:06;;;;;;;5.80;2.10;;;;;;;;;;5090005;28;20036;-60
2022/12/20 07:08:33;;;;;;;3.00;1.97;;;;;;;;;;5094859;28;20032;-60
2022/12/20 07:11:04;;;;;;;3.90;1.90;;;;;;;;;;5095179;28;20024;-60
2022/12/20 07:13:31;;;;;;;3.87;2.30;;;;;;;;;;5100587;28;20016;-60
2022/12/20 07:15:58;;;;;;;2.90;1.57;;;;;;;;;;5115585;28;20035;-59
2022/12/20 07:18:25;;;;;;;8.27;3.90;;;;;;;;;;5115110;28;20031;-59
2022/12/20 07:20:52;;;;;;;26.30;3.57;;;;;;;;;;5110041;28;20068;-60
2022/12/20 07:23:19;;;;;;;17.57;6.07;;;;;;;;;;5109972;28;20095;-59
2022/12/20 07:25:53;;;;;;;7.30;3.33;;;;;;;;;;5108329;28;20026;-59
2022/12/20 07:28:20;;;;;;;11.98;6.00;;;;;;;;;;5109288;28;20031;-60
2022/12/20 07:30:47;;;;;;;32.47;4.30;;;;;;;;;;5114773;28;20034;-59
2022/12/20 07:33:14;;;;;;;6.70;4.20;;;;;;;;;;5114883;28;20377;-59
2022/12/20 07:35:40;;;;;;;14.60;4.90;;;;;;;;;;5106592;28;20043;-59
2022/12/20 07:38:07;;;;;;;5.30;3.33;;;;;;;;;;5094468;28;20016;-59
2022/12/20 07:40:34;;;;;;;28.13;5.40;;;;;;;;;;5094828;28;20116;-59
2022/12/20 07:43:00;;;;;;;10.70;5.80;;;;;;;;;;5089400;28;20047;-60
2022/12/20 07:45:27;;;;;;;7.00;4.53;;;;;;;;;;5089694;28;20363;-60
2022/12/20 07:47:56;;;;;;;8.00;4.73;;;;;;;;;;5101500;28;20031;-59
2022/12/20 07:50:23;;;;;;;12.47;6.13;;;;;;;;;;5108883;28;20486;-60
2022/12/20 07:52:50;;;;;;;6.77;4.40;;;;;;;;;;5113873;28;20579;-60
2022/12/20 07:55:18;;;;;;;10.77;4.37;;;;;;;;;;5114550;28;20040;-59
2022/12/20 07:57:51;;;;;;;6.33;4.33;;;;;;;;;;5114777;28;20027;-59
2022/12/20 08:00:18;;;;;;;3.57;2.83;;;;;;;;;;5096500;28;20486;-59
2022/12/20 08:02:48;;;;;;;7.30;4.77;;;;;;;;;;5094272;28;20028;-59
2022/12/20 08:05:16;;;;;;;5.83;3.33;;;;;;;;;;5089202;28;20510;-60
2022/12/20 08:07:45;;;;;;;24.27;3.53;;;;;;;;;;5088692;28;20486;-59
2022/12/20 08:10:13;;;;;;;9.90;4.33;;;;;;;;;;5088769;28;20059;-59
2022/12/20 08:12:40;;;;;;;18.77;3.97;;;;;;;;;;5109069;28;20036;-59
2022/12/20 08:15:07;;;;;;;6.73;3.77;;;;;;;;;;5113414;28;20070;-59
2022/12/20 08:17:34;;;;;;;6.40;4.43;;;;;;;;;;5114413;28;20032;-60
2022/12/20 08:20:00;;;;;;;4.37;2.70;;;;;;;;;;5113968;28;20024;-59
2022/12/20 08:22:27;;;;;;;8.37;4.60;;;;;;;;;;5112214;28;20474;-59
2022/12/20 08:24:54;;;;;;;6.20;4.57;;;;;;;;;;5099571;28;20475;-59
2022/12/20 08:27:21;;;;;;;6.97;4.57;;;;;;;;;;5109372;28;20103;-59
2022/12/20 08:29:48;;;;;;;7.47;5.40;;;;;;;;;;5108667;28;20477;-59
2022/12/20 08:32:15;;;;;;;4.00;2.53;;;;;;;;;;5108734;28;20074;-60
2022/12/20 08:34:42;;;;;;;5.50;3.53;;;;;;;;;;5103399;28;20032;-59
2022/12/20 08:37:08;;;;;;;6.43;3.33;;;;;;;;;;5092175;28;20028;-60
2022/12/20 08:39:36;;;;;;;4.20;2.43;;;;;;;;;;5097898;28;20100;-59
2022/12/20 08:42:04;;;;;;;5.87;3.10;;;;;;;;;;5114038;28;20351;-59
2022/12/20 08:44:31;;;;;;;4.30;3.03;;;;;;;;;;5113909;28;20065;-59
2022/12/20 08:46:58;;;;;;;4.97;3.40;;;;;;;;;;5113601;28;20055;-59
2022/12/20 08:49:24;;;;;;;14.60;4.90;;;;;;;;;;5106995;28;20038;-59
2022/12/20 08:51:51;;;;;;;7.90;3.43;;;;;;;;;;5087601;28;20080;-59
2022/12/20 08:54:18;;;;;;;6.50;3.73;;;;;;;;;;5089851;28;20035;-59
2022/12/20 08:56:44;;;;;;;8.97;4.10;;;;;;;;;;5108140;28;20028;-59
2022/12/20 08:59:11;;;;;;;4.73;3.03;;;;;;;;;;5111534;28;20047;-59
2022/12/20 09:01:38;;;;;;;4.97;3.50;;;;;;;;;;5113505;28;20023;-59
2022/12/20 09:04:05;;;;;;;7.10;3.57;;;;;;;;;;5112737;28;20091;-59
2022/12/20 09:06:34;;;;;;;5.30;3.30;;;;;;;;;;5093047;28;20020;-59
2022/12/20 09:09:01;;;;;;;5.10;2.97;;;;;;;;;;5093084;28;20023;-59
2022/12/20 09:11:28;;;;;;;2.53;1.90;;;;;;;;;;5089099;28;20591;-59
2022/12/20 09:13:56;;;;;;;8.80;4.13;;;;;;;;;;5087629;28;20028;-60
2022/12/20 09:16:25;;;;;;;3.97;3.07;;;;;;;;;;5087433;28;20028;-61
2022/12/20 09:18:53;;;;;;;5.27;3.30;;;;;;;;;;5067368;28;20502;-60
2022/12/20 09:21:20;;;;;;;3.00;2.30;;;;;;;;;;5070662;28;20475;-61
2022/12/20 09:23:47;;;;;;;5.03;2.23;;;;;;;;;;5112924;28;20031;-59
2022/12/20 09:26:15;;;;;;;6.47;3.33;;;;;;;;;;5111257;28;20084;-59
2022/12/20 09:28:43;;;;;;;9.00;4.37;;;;;;;;;;5113084;28;20106;-59
2022/12/20 09:31:14;;;;;;;5.90;3.97;;;;;;;;;;5112927;28;20024;-60
2022/12/20 09:33:41;;;;;;;8.57;3.83;;;;;;;;;;5090049;28;20041;-59
2022/12/20 09:36:11;;;;;;;9.13;3.53;;;;;;;;;;5087095;28;20045;-59
2022/12/20 09:38:38;;;;;;;13.67;3.50;;;;;;;;;;5106404;28;20031;-60
2022/12/20 09:41:06;;;;;;;5.17;3.00;;;;;;;;;;5107725;28;20023;-59
2022/12/20 09:43:33;;;;;;;5.40;2.37;;;;;;;;;;5099728;28;20470;-59
2022/12/20 09:46:03;;;;;;;3.70;2.67;;;;;;;;;;5092461;28;20458;-59
2022/12/20 09:48:34;;;;;;;8.40;3.03;;;;;;;;;;5092536;28;20533;-59
2022/12/20 09:51:10;;;;;;;7.37;2.57;;;;;;;;;;5091938;28;20017;-59
2022/12/20 09:53:40;;;;;;;3.20;2.00;;;;;;;;;;5101959;28;20039;-60
2022/12/20 09:56:12;;;;;;;2.23;1.70;;;;;;;;;;5108604;28;20032;-59
2022/12/20 09:58:58;;;;;;;7.73;3.27;;;;;;;;;;5107312;28;20054;-60
2022/12/20 10:01:27;;;;;;;9.73;2.93;;;;;;;;;;5107306;28;20016;-59
2022/12/20 10:03:54;;;;;;;2.87;2.23;;;;;;;;;;5107227;28;20249;-59
2022/12/20 10:06:30;;;;;;;10.23;3.23;;;;;;;;;;5093590;28;20024;-60
2022/12/20 10:08:58;;;;;;;4.03;2.40;;;;;;;;;;5092286;28;20032;-59
2022/12/20 10:11:43;;;;;;;1.77;1.53;;;;;;;;;;5091717;28;20099;-59
2022/12/20 10:14:28;;;;;;;2.13;1.42;;;;;;;;;;5092615;28;20330;-59
2022/12/20 10:17:04;;;;;;;2.55;1.65;;;;;;;;;;5101710;28;20022;-59
2022/12/20 10:19:33;;;;;;;5.37;3.23;;;;;;;;;;5099508;28;20093;-59
2022/12/20 10:22:16;;;;;;;4.20;2.80;;;;;;;;;;5090774;28;20252;-59
2022/12/20 10:24:45;;;;;;;13.43;6.87;;;;;;;;;;5090694;28;20830;-59
2022/12/20 10:27:15;;;;;;;9.00;5.60;;;;;;;;;;5092005;28;20302;-59
2022/12/20 10:29:42;;;;;;;6.53;3.83;;;;;;;;;;5107074;28;20262;-58
2022/12/20 10:32:19;;;;;;;13.20;6.77;;;;;;;;;;5103492;28;20318;-59
2022/12/20 10:34:51;;;;;;;9.57;6.87;;;;;;;;;;5095869;28;20032;-59
2022/12/20 10:37:18;;;;;;;10.13;4.97;;;;;;;;;;5095747;28;20661;-59
2022/12/20 10:39:49;;;;;;;23.50;7.33;;;;;;;;;;5093692;28;20274;-59
2022/12/20 10:42:27;;;;;;;19.03;12.33;;;;;;;;;;5102786;28;20283;-58
2022/12/20 10:44:54;;;;;;;10.13;5.43;;;;;;;;;;5110643;28;20059;-59
2022/12/20 10:47:35;;;;;;;18.43;10.40;;;;;;;;;;5110921;28;20252;-59
2022/12/20 10:50:28;;;;;;;15.00;4.90;;;;;;;;;;5113458;28;20287;-59
2022/12/20 10:53:04;;;;;;;8.80;4.57;;;;;;;;;;5111597;28;20038;-59
2022/12/20 10:55:36;;;;;;;8.23;5.93;;;;;;;;;;5075200;28;20289;-59
2022/12/20 10:58:23;;;;;;;14.13;6.93;;;;;;;;;;5074879;28;20751;-59
2022/12/20 11:00:50;;;;;;;9.83;6.43;;;;;;;;;;5075100;28;20725;-59
2022/12/20 11:03:21;;;;;;;17.27;7.53;;;;;;;;;;5069966;28;20748;-59
2022/12/20 11:06:00;;;;;;;10.13;5.53;;;;;;;;;;5078815;28;20368;-59
2022/12/20 11:08:27;;;;;;;13.73;7.50;;;;;;;;;;5110049;28;20824;-59
2022/12/20 11:11:12;;;;;;;19.33;6.50;;;;;;;;;;5091859;28;20264;-59
2022/12/20 11:13:40;;;;;;;10.35;5.30;;;;;;;;;;5115664;28;20263;-60
2022/12/20 11:16:22;;;;;;;12.63;5.33;;;;;;;;;;5115345;28;20042;-59
2022/12/20 11:19:06;;;;;;;7.73;3.93;;;;;;;;;;5100270;28;20765;-59
2022/12/20 11:21:39;;;;;;;8.10;4.30;;;;;;;;;;5095132;28;20367;-59
2022/12/20 11:24:09;;;;;;;27.10;5.30;;;;;;;;;;5093149;28;20024;-59
2022/12/20 11:26:54;;;;;;;5.20;3.87;;;;;;;;;;5088817;28;20253;-59
2022/12/20 11:29:27;;;;;;;5.43;3.67;;;;;;;;;;5091889;28;20571;-59
2022/12/20 11:32:12;;;;;;;4.10;3.10;;;;;;;;;;5109968;28;20473;-59
2022/12/20 11:34:39;;;;;;;5.97;4.15;;;;;;;;;;5112510;28;20943;-59
2022/12/20 11:37:16;;;;;;;8.30;3.43;;;;;;;;;;5115027;28;20024;-59
2022/12/20 11:39:55;;;;;;;5.80;3.40;;;;;;;;;;5115046;28;20324;-59
2022/12/20 11:42:28;;;;;;;7.93;3.77;;;;;;;;;;5106463;28;20270;-59
2022/12/20 11:45:13;;;;;;;5.13;3.80;;;;;;;;;;5094560;28;20635;-60
2022/12/20 11:47:40;;;;;;;3.50;2.63;;;;;;;;;;5089707;28;20257;-59
2022/12/20 11:50:09;;;;;;;6.63;3.00;;;;;;;;;;5089388;28;20367;-59
2022/12/20 11:52:41;;;;;;;4.57;3.17;;;;;;;;;;5089097;28;20681;-59
2022/12/20 11:55:08;;;;;;;3.77;2.53;;;;;;;;;;5103363;28;20291;-59
2022/12/20 11:57:39;;;;;;;3.93;2.03;;;;;;;;;;5113937;28;20343;-59
2022/12/20 12:00:06;;;;;;;4.00;2.73;;;;;;;;;;5114845;28;20278;-59
2022/12/20 12:02:37;;;;;;;3.03;1.67;;;;;;;;;;5104067;28;20269;-59
2022/12/20 12:05:06;;;;;;;2.90;1.97;;;;;;;;;;5094354;28;20253;-59
2022/12/20 12:07:34;;;;;;;4.30;2.33;;;;;;;;;;5093736;28;20269;-59
2022/12/20 12:10:06;;;;;;;5.43;3.23;;;;;;;;;;5088591;28;20713;-59
2022/12/20 12:12:46;;;;;;;4.33;3.30;;;;;;;;;;5097548;28;20328;-60
2022/12/20 12:15:15;;;;;;;4.37;2.83;;;;;;;;;;5109081;28;20280;-60
2022/12/20 12:18:02;;;;;;;2.60;2.20;;;;;;;;;;5108796;28;20576;-59
2022/12/20 12:20:47;;;;;;;2.40;1.93;;;;;;;;;;5114156;28;20369;-58
2022/12/20 12:23:24;;;;;;;5.38;3.22;;;;;;;;;;5102731;28;20269;-59
2022/12/20 12:25:50;;;;;;;3.23;2.17;;;;;;;;;;5093895;28;20016;-59
2022/12/20 12:28:18;;;;;;;4.20;1.73;;;;;;;;;;5093632;28;20289;-59
2022/12/20 12:30:47;;;;;;;4.13;3.33;;;;;;;;;;5091717;28;20751;-59
2022/12/20 12:33:20;;;;;;;2.73;2.10;;;;;;;;;;5098536;28;20271;-59
2022/12/20 12:36:11;;;;;;;3.67;2.40;;;;;;;;;;5108781;28;20630;-59
2022/12/20 12:39:08;;;;;;;11.47;3.13;;;;;;;;;;5092846;28;20751;-59
2022/12/20 12:41:53;;;;;;;5.77;3.37;;;;;;;;;;5091171;28;20283;-60
2022/12/20 12:44:33;;;;;;;3.45;2.28;;;;;;;;;;5093486;28;20249;-59
2022/12/20 12:47:01;;;;;;;4.60;3.00;;;;;;;;;;5094951;28;20030;-58
2022/12/20 12:49:30;;;;;;;4.30;2.50;;;;;;;;;;5095699;28;20414;-58
2022/12/20 12:51:59;;;;;;;5.40;2.77;;;;;;;;;;5097128;28;20314;-58
2022/12/20 12:54:30;;;;;;;5.93;3.20;;;;;;;;;;5088953;28;20287;-59
2022/12/20 12:57:16;;;;;;;3.53;2.87;;;;;;;;;;5087754;28;20386;-59
2022/12/20 12:59:47;;;;;;;6.53;3.43;;;;;;;;;;5087527;28;20261;-59
2022/12/20 13:02:14;;;;;;;2.70;1.87;;;;;;;;;;5087592;28;20356;-59
2022/12/20 13:04:58;;;;;;;11.40;3.33;;;;;;;;;;5105488;28;20259;-59
2022/12/20 13:07:34;;;;;;;3.30;2.67;;;;;;;;;;5113039;28;20291;-59
2022/12/20 13:10:02;;;;;;;3.63;2.67;;;;;;;;;;5112965;28;20252;-58
2022/12/20 13:12:37;;;;;;;4.13;3.03;;;;;;;;;;5113352;28;20313;-58
2022/12/20 13:15:19;;;;;;;2.50;2.20;;;;;;;;;;5111410;28;20288;-59
2022/12/20 13:17:46;;;;;;;5.97;4.07;;;;;;;;;;5086274;28;20269;-58
2022/12/20 13:20:18;;;;;;;4.90;3.40;;;;;;;;;;5086887;28;20307;-58
2022/12/20 13:23:03;;;;;;;3.23;2.57;;;;;;;;;;5087509;28;20707;-59
2022/12/20 13:25:30;;;;;;;1.95;1.52;;;;;;;;;;5087878;28;20321;-58
2022/12/20 13:28:15;;;;;;;3.60;2.60;;;;;;;;;;5072561;28;20020;-58
2022/12/20 13:30:43;;;;;;;3.00;2.50;;;;;;;;;;5072429;28;20308;-58
2022/12/20 13:33:25;;;;;;;6.33;3.53;;;;;;;;;;5072536;28;20031;-58
2022/12/20 13:35:58;;;;;;;4.30;3.37;;;;;;;;;;5072063;28;20289;-58
2022/12/20 13:52:25;;;;;;;6.20;2.60;;;;;;;;;;5051174;27;2472422;-62
2022/12/20 13:54:53;;;;;;;4.83;3.17;;;;;;;;;;5103456;28;20043;-64
2022/12/20 13:57:43;;;;;;;3.27;2.27;;;;;;;;;;5104257;28;20023;-62
2022/12/20 14:00:24;;;;;;;4.83;2.60;;;;;;;;;;5091310;28;20509;-62
2022/12/20 14:02:51;;;;;;;20.47;3.47;;;;;;;;;;5104957;28;20020;-62
2022/12/20 14:05:18;;;;;;;3.70;2.53;;;;;;;;;;5109464;28;20056;-62
2022/12/20 14:07:46;;;;;;;4.00;2.83;;;;;;;;;;5109505;28;20114;-62
2022/12/20 14:10:19;;;;;;;2.63;1.93;;;;;;;;;;5109696;28;20423;-62
2022/12/20 14:12:46;;;;;;;3.10;1.90;;;;;;;;;;5109644;28;20044;-62
2022/12/20 14:15:32;;;;;;;3.33;2.47;;;;;;;;;;5107467;28;20035;-63
2022/12/20 14:18:05;;;;;;;1.27;1.17;;;;;;;;;;5103878;28;20032;-63
2022/12/20 14:20:36;;;;;;;2.77;2.13;;;;;;;;;;5103937;28;20551;-62
2022/12/20 14:23:07;;;;;;;3.20;1.90;;;;;;;;;;5103605;28;20385;-62
2022/12/20 14:25:57;;;;;;;8.17;3.90;;;;;;;;;;5105986;28;20420;-63
2022/12/20 14:28:37;;;;;;;3.73;2.90;;;;;;;;;;5096750;28;20032;-63
2022/12/20 14:31:04;;;;;;;4.77;2.87;;;;;;;;;;5109289;28;20351;-62
2022/12/20 14:33:34;;;;;;;7.63;4.07;;;;;;;;;;5108355;28;20077;-63
2022/12/20 14:36:17;;;;;;;7.43;4.03;;;;;;;;;;5109239;28;20038;-62
2022/12/20 14:38:45;;;;;;;7.50;4.13;;;;;;;;;;5104071;28;20102;-63
2022/12/20 14:41:27;;;;;;;10.27;4.53;;;;;;;;;;5103501;28;20063;-63
2022/12/20 14:43:55;;;;;;;4.27;3.27;;;;;;;;;;5103293;28;20032;-63
2022/12/20 14:46:22;;;;;;;4.03;2.97;;;;;;;;;;5102768;28;20019;-63
2022/12/20 14:48:49;;;;;;;9.07;3.27;;;;;;;;;;5108190;28;20027;-62
2022/12/20 14:51:20;;;;;;;10.33;3.63;;;;;;;;;;5106462;28;20381;-63
2022/12/20 14:53:48;;;;;;;9.87;4.00;;;;;;;;;;5095251;28;20027;-62
2022/12/20 14:56:17;;;;;;;8.73;3.40;;;;;;;;;;5094982;28;20108;-63
2022/12/20 14:58:44;;;;;;;4.97;3.63;;;;;;;;;;5095156;28;20028;-63
2022/12/20 15:01:17;;;;;;;4.83;3.17;;;;;;;;;;5089127;28;20042;-63
2022/12/20 15:03:53;;;;;;;9.20;2.60;;;;;;;;;;5089688;28;20024;-64
2022/12/20 15:06:32;;;;;;;3.33;2.50;;;;;;;;;;5089161;28;20023;-64
2022/12/20 15:08:59;;;;;;;5.30;3.53;;;;;;;;;;5089606;28;20077;-63
2022/12/20 15:11:25;;;;;;;4.47;2.90;;;;;;;;;;5094595;28;20048;-63
2022/12/20 15:13:54;;;;;;;3.23;2.00;;;;;;;;;;5094648;28;20042;-63
2022/12/20 15:16:28;;;;;;;4.07;2.50;;;;;;;;;;5094597;28;20469;-62
2022/12/20 15:18:55;;;;;;;5.03;2.70;;;;;;;;;;5094355;28;20012;-63
2022/12/20 15:21:44;;;;;;;3.90;2.60;;;;;;;;;;5093774;28;20165;-63
2022/12/20 15:24:15;;;;;;;2.70;1.70;;;;;;;;;;5088728;28;20055;-63
2022/12/20 15:26:42;;;;;;;4.13;2.80;;;;;;;;;;5088651;28;20498;-64
2022/12/20 15:29:16;;;;;;;6.13;3.33;;;;;;;;;;5088897;28;20378;-63
2022/12/20 15:31:44;;;;;;;5.28;3.25;;;;;;;;;;5090528;28;20016;-63
2022/12/20 15:34:15;;;;;;;4.33;2.83;;;;;;;;;;5094353;28;20136;-63
2022/12/20 15:36:43;;;;;;;3.47;1.83;;;;;;;;;;5094306;28;20028;-63